ADDS METAR Data INFO
IDs: Format: Raw Decoded Include TAF

Data at: 0752 UTC 23 Jul 2018

KBVU 230735Z AUTO 33016G23KT 10SM CLR 33/13 A2998 RMK AO2
KBVU 230715Z AUTO 32017G27KT 10SM CLR 34/12 A2999 RMK AO2
KBVU 230655Z AUTO 34006KT 10SM CLR 31/14 A2998 RMK AO2
KBVU 230635Z AUTO 34004KT 10SM CLR 31/14 A2998 RMK AO2
KBVU 230615Z AUTO 00000KT 10SM CLR 31/15 A2998 RMK AO2
KBVU 230555Z AUTO 00000KT 10SM CLR 32/14 A2998 RMK AO2
KBVU 230535Z AUTO 00000KT 10SM CLR 33/14 A2998 RMK AO2
KBVU 230515Z AUTO 00000KT 10SM CLR 32/15 A2998 RMK AO2
KBVU 230455Z AUTO 00000KT 10SM CLR 34/13 A2997 RMK AO2
KBVU 230435Z AUTO 00000KT 10SM CLR 33/14 A2997 RMK AO2
KBVU 230415Z AUTO 00000KT 10SM CLR 33/14 A2996 RMK AO2
KBVU 230355Z AUTO 00000KT 10SM CLR 35/12 A2996 RMK AO2
KBVU 230335Z AUTO 03005KT 10SM CLR 35/12 A2995 RMK AO2
KBVU 230315Z AUTO 04007KT 10SM CLR 36/11 A2995 RMK AO2
KBVU 230255Z AUTO 04007KT 10SM CLR 37/11 A2994 RMK AO2
KBVU 230235Z AUTO 05006KT 10SM CLR 38/10 A2994 RMK AO2
KBVU 230215Z AUTO 04007KT 10SM CLR 38/10 A2993 RMK AO2
KBVU 230155Z AUTO 03007KT 10SM CLR 38/10 A2993 RMK AO2
KBVU 230135Z AUTO 05009KT 10SM CLR 39/10 A2993 RMK AO2
KBVU 230115Z AUTO 00000KT 10SM CLR 39/09 A2993 RMK AO2
KBVU 230055Z AUTO 17004KT 10SM CLR 39/09 A2993 RMK AO2
KBVU 230035Z AUTO 00000KT 10SM CLR 39/09 A2994 RMK AO2
KBVU 230015Z AUTO 00000KT 10SM CLR 39/08 A2995 RMK AO2
KBVU 222355Z AUTO 00000KT 10SM CLR 39/08 A2995 RMK AO2
KBVU 222335Z AUTO VRB05KT 10SM CLR 39/09 A2996 RMK AO2
KBVU 222315Z AUTO 00000KT 10SM CLR 39/09 A2996 RMK AO2
KBVU 222255Z AUTO 27007KT 10SM CLR 39/09 A2997 RMK AO2
KBVU 222235Z AUTO 26008KT 10SM CLR 39/09 A2998 RMK AO2
KBVU 222215Z AUTO VRB04KT 10SM CLR 39/10 A2999 RMK AO2
KBVU 222155Z AUTO 15007KT 10SM CLR 38/10 A3000 RMK AO2
KBVU 222135Z AUTO 00000G12KT 10SM CLR 37/10 A3001 RMK AO2
KBVU 222115Z AUTO VRB05G10KT 10SM CLR 37/10 A3002 RMK AO2
KBVU 222055Z AUTO 04008KT 10SM CLR 37/11 A3002 RMK AO2
KBVU 222035Z AUTO 06006KT 10SM CLR 36/11 A3003 RMK AO2
KBVU 222015Z AUTO VRB03KT 10SM CLR 36/12 A3004 RMK AO2
KBVU 221955Z AUTO VRB03KT 10SM CLR 36/12 A3004 RMK AO2
KBVU 221935Z AUTO VRB04KT 10SM CLR 35/12 A3005 RMK AO2
KBVU 221915Z AUTO 03005KT 10SM CLR 35/13 A3006 RMK AO2
KBVU 221855Z AUTO VRB06KT 10SM CLR 35/13 A3006 RMK AO2
KBVU 221835Z AUTO VRB05KT 10SM CLR 34/13 A3007 RMK AO2
KBVU 221815Z AUTO VRB04KT 10SM CLR 34/13 A3008 RMK AO2
KBVU 221755Z AUTO 00000KT 10SM CLR 33/14 A3008 RMK AO2
KBVU 221735Z AUTO 12003KT 10SM CLR 32/14 A3009 RMK AO2
KBVU 221715Z AUTO 00000KT 10SM CLR 32/14 A3008 RMK AO2
KBVU 221655Z AUTO 07003KT 10SM CLR 31/15 A3009 RMK AO2
KBVU 221635Z AUTO 21004KT 10SM CLR 31/15 A3009 RMK AO2
KBVU 221615Z AUTO 00000KT 10SM CLR 30/14 A3009 RMK AO2
KBVU 221555Z AUTO 13004KT 10SM CLR 30/15 A3009 RMK AO2
KBVU 221535Z AUTO 00000KT 10SM CLR 29/14 A3009 RMK AO2
KBVU 221515Z AUTO 06003KT 10SM CLR 29/15 A3009 RMK AO2
KBVU 221455Z AUTO 00000KT 10SM CLR 28/16 A3008 RMK AO2
KBVU 221435Z AUTO 00000KT 10SM CLR 27/16 A3008 RMK AO2
KBVU 221415Z AUTO 00000KT 10SM CLR 26/16 A3008 RMK AO2
KBVU 221355Z AUTO 00000KT 10SM CLR 26/16 A3008 RMK AO2
KBVU 221335Z AUTO 00000KT 10SM CLR 24/16 A3007 RMK AO2
KBVU 221315Z AUTO 35003KT 10SM CLR 23/16 A3007 RMK AO2
KBVU 221255Z AUTO 05004KT 10SM CLR 23/17 A3007 RMK AO2
KBVU 221235Z AUTO 05004KT 10SM CLR 22/17 A3006 RMK AO2
KBVU 221215Z AUTO 06003KT 10SM FEW055 FEW100 22/17 A3006 RMK AO2
KBVU 221155Z AUTO 11004KT 10SM FEW055 BKN100 24/16 A3005 RMK AO2
KBVU 221135Z AUTO 00000KT 10SM FEW055 BKN100 24/16 A3004 RMK AO2
KBVU 221115Z AUTO 02004KT 10SM FEW047 FEW055 BKN100 23/16 A3004 RMK AO2
KBVU 221055Z AUTO 00000KT 10SM BKN100 23/16 A3004 RMK AO2
KBVU 221035Z AUTO 00000KT 10SM FEW049 SCT100 23/16 A3004 RMK AO2
KBVU 221015Z AUTO 00000KT 10SM FEW047 24/16 A3003 RMK AO2
KBVU 220955Z AUTO 00000KT 10SM FEW047 SCT055 24/16 A3003 RMK AO2
KBVU 220935Z AUTO 00000KT 10SM SCT047 SCT055 25/16 A3002 RMK AO2
KBVU 220915Z AUTO 02004KT 10SM FEW043 FEW050 24/16 A3002 RMK AO2
KBVU 220855Z AUTO 05004KT 10SM CLR 25/16 A3003 RMK AO2
KBVU 220835Z AUTO 05007KT 10SM CLR 25/15 A3003 RMK AO2
KBVU 220815Z AUTO 04005KT 10SM CLR 25/15 A3003 RMK AO2
KBVU 220755Z AUTO 05007KT 10SM CLR 25/16 A3003 RMK AO2
KBVU 220735Z AUTO 04006KT 10SM FEW100 25/16 A3003 RMK AO2
KBVU 220715Z AUTO 05005KT 10SM FEW100 25/17 A3003 RMK AO2
KBVU 220655Z AUTO 06004KT 10SM CLR 26/16 A3004 RMK AO2
KBVU 220635Z AUTO 04007KT 10SM CLR 26/16 A3003 RMK AO2
KBVU 220615Z AUTO 03006KT 10SM CLR 26/17 A3003 RMK AO2
KBVU 220555Z AUTO 03006KT 10SM FEW110 26/16 A3003 RMK AO2
KBVU 220535Z AUTO 04007KT 10SM BKN110 26/17 A3003 RMK AO2
KBVU 220515Z AUTO 05007KT 10SM SCT110 26/17 A3003 RMK AO2
KBVU 220455Z AUTO 03005KT 10SM SCT120 26/17 A3003 RMK AO2
KBVU 220435Z AUTO 06006KT 10SM FEW075 BKN120 26/17 A3003 RMK AO2
KBVU 220415Z AUTO 05006KT 10SM FEW049 BKN075 OVC110 26/17 A3003 RMK AO2
KBVU 220355Z AUTO 07004KT 10SM FEW049 SCT075 BKN085 26/17 A3001 RMK AO2
KBVU 220335Z AUTO 07010KT 10SM FEW033 SCT055 BKN075 26/18 A3001 RMK AO2
KBVU 220315Z AUTO 07006KT 10SM FEW060 SCT070 OVC110 27/17 A3000 RMK AO2
KBVU 220255Z AUTO 30004KT 10SM OVC110 27/18 A2999 RMK AO2
KBVU 220235Z AUTO 30003KT 10SM BKN120 27/18 A2999 RMK AO2
KBVU 220215Z AUTO 00000KT 10SM BKN120 27/17 A2999 RMK AO2
KBVU 220155Z AUTO 00000KT 10SM FEW120 27/17 A3000 RMK AO2
KBVU 220135Z AUTO 17004KT 10SM FEW120 28/17 A3000 RMK AO2
KBVU 220115Z AUTO 15005KT 10SM CLR 28/16 A3000 RMK AO2
KBVU 220055Z AUTO 08006KT 10SM FEW055 FEW070 FEW080 28/16 A2998 RMK AO2
KBVU 220035Z AUTO 05004KT 10SM CLR 28/17 A2999 RMK AO2
KBVU 220015Z AUTO 04006KT 10SM CLR 27/18 A2998 RMK AO2
KBVU 212355Z AUTO 04003KT 10SM CLR 28/17 A3000 RMK AO2
KBVU 212335Z AUTO 36004KT 10SM -DZ CLR 28/16 A3001 RMK AO2
KBVU 212315Z AUTO 36004KT 10SM CLR 27/17 A3003 RMK AO2
KBVU 212255Z AUTO 30004KT 10SM CLR 27/17 A3003 RMK AO2
KBVU 212235Z AUTO 29005KT 10SM CLR 26/19 A3003 RMK AO2
KBVU 212215Z AUTO 30008KT 10SM -DZ FEW041 SCT055 BKN070 25/19 A3005 RMK AO2
KBVU 212155Z AUTO VRB04KT 10SM -RA FEW042 FEW048 SCT055 25/18 A3006 RMK AO2 LTG DSNT NE-SE
KBVU 212135Z AUTO 24006KT 10SM VCTS CLR 25/18 A3008 RMK AO2 LTG DSNT NE-SE
KBVU 212115Z AUTO 15008G15KT 10SM CLR 25/19 A3010 RMK AO2 LTG DSNT E AND SE
KBVU 212055Z AUTO 17012G20KT 10SM CLR 26/18 A3010 RMK AO2
KBVU 212035Z AUTO 18009G19KT 10SM CLR 25/19 A3008 RMK AO2
KBVU 212015Z AUTO 13017G25KT 10SM CLR 27/17 A3007 RMK AO2 LTG DSNT E AND SE
KBVU 211955Z AUTO 10SM CLR 29/14 A3005 RMK AO2